createdAt,value
2018-03-21T00:00:07.129Z,101232.94
2018-03-21T00:03:08.391Z,101232.42
2018-03-21T00:06:09.655Z,101233.19
2018-03-21T00:09:10.932Z,101236.86
2018-03-21T00:12:12.925Z,101234.94
2018-03-21T00:15:14.210Z,101240.36
2018-03-21T00:18:15.437Z,101231.55
2018-03-21T00:21:17.419Z,101238.27
2018-03-21T00:24:19.408Z,101247.72
2018-03-21T00:27:21.430Z,101253.00
2018-03-21T00:30:22.687Z,101258.09
2018-03-21T00:33:23.930Z,101256.61
2018-03-21T00:36:25.199Z,101259.53
2018-03-21T00:39:26.474Z,101262.95
2018-03-21T00:42:27.761Z,101261.42
2018-03-21T00:45:29.024Z,101261.31
2018-03-21T00:48:30.282Z,101270.86
2018-03-21T00:51:31.516Z,101266.59
2018-03-21T00:54:32.779Z,101270.78
2018-03-21T00:57:34.039Z,101268.24
2018-03-21T01:00:35.306Z,101268.77
2018-03-21T01:03:36.567Z,101265.96
2018-03-21T01:06:37.815Z,101265.50
2018-03-21T01:09:39.089Z,101272.55
2018-03-21T01:12:40.321Z,101265.61
2018-03-21T01:15:42.314Z,101258.34
2018-03-21T01:18:43.563Z,101270.53
2018-03-21T01:21:45.562Z,101264.84
2018-03-21T01:24:46.810Z,101264.66
2018-03-21T01:27:48.818Z,101270.05
2018-03-21T01:30:50.078Z,101259.12
2018-03-21T01:33:51.309Z,101256.75
2018-03-21T01:36:53.347Z,101256.27
2018-03-21T01:39:54.611Z,101256.02
2018-03-21T01:42:55.890Z,101264.28
2018-03-21T01:45:57.154Z,101255.05
2018-03-21T01:48:58.406Z,101265.97
2018-03-21T01:51:59.679Z,101269.41
2018-03-21T01:55:00.917Z,101257.06
2018-03-21T01:58:02.206Z,101269.73
2018-03-21T02:01:03.470Z,101257.37
2018-03-21T02:04:04.754Z,101256.07
2018-03-21T02:07:06.029Z,101260.48
2018-03-21T02:10:08.016Z,101265.60
2018-03-21T02:13:09.980Z,101271.81
2018-03-21T02:16:11.230Z,101259.67
2018-03-21T02:19:12.504Z,101270.80
2018-03-21T02:22:13.744Z,101258.65
2018-03-21T02:25:15.025Z,101271.45
2018-03-21T02:28:16.278Z,101266.80
2018-03-21T02:31:17.499Z,101273.45
2018-03-21T02:34:18.778Z,101267.02
2018-03-21T02:37:20.008Z,101268.11
2018-03-21T02:40:22.025Z,101266.98
2018-03-21T02:43:23.283Z,101262.62
2018-03-21T02:46:24.543Z,101261.32
2018-03-21T02:49:25.825Z,101263.30
2018-03-21T02:52:27.096Z,101266.92
2018-03-21T02:55:28.357Z,101263.36
2018-03-21T02:58:29.624Z,101271.85
2018-03-21T03:01:30.872Z,101265.91
2018-03-21T03:04:32.165Z,101273.09
2018-03-21T03:07:33.410Z,101273.75
2018-03-21T03:10:34.690Z,101282.72
2018-03-21T03:13:35.959Z,101262.47
2018-03-21T03:16:37.228Z,101276.65
2018-03-21T03:19:38.526Z,101279.52
2018-03-21T03:22:39.815Z,101274.80
2018-03-21T03:25:41.094Z,101267.73
2018-03-21T03:28:42.339Z,101268.74
2018-03-21T03:31:43.620Z,101269.16
2018-03-21T03:34:44.893Z,101278.13
2018-03-21T03:37:46.151Z,101278.19
2018-03-21T03:40:47.419Z,101278.78
2018-03-21T03:43:48.680Z,101285.00
2018-03-21T03:46:49.954Z,101282.59
2018-03-21T03:49:51.195Z,101286.75
2018-03-21T03:52:52.430Z,101282.97
2018-03-21T03:55:53.656Z,101280.66
2018-03-21T03:58:55.642Z,101280.13
2018-03-21T04:01:57.644Z,101285.78
2018-03-21T04:04:58.887Z,101281.05
2018-03-21T04:08:00.855Z,101285.70
2018-03-21T04:11:02.139Z,101290.72
2018-03-21T04:14:03.435Z,101293.30
2018-03-21T04:17:04.693Z,101287.93
2018-03-21T04:20:05.958Z,101296.61
2018-03-21T04:23:07.214Z,101294.42
2018-03-21T04:26:08.446Z,101301.33
2018-03-21T04:29:10.418Z,101299.22
2018-03-21T04:32:11.642Z,101293.47
2018-03-21T04:35:12.888Z,101296.14
2018-03-21T04:38:14.122Z,101305.66
2018-03-21T04:41:16.137Z,101300.14
2018-03-21T04:44:17.855Z,101300.05
2018-03-21T04:47:19.157Z,101302.64
2018-03-21T04:50:20.407Z,101299.44
2018-03-21T04:53:21.667Z,101297.95
2018-03-21T04:56:23.663Z,101294.51
2018-03-21T04:59:24.923Z,101302.09
2018-03-21T05:02:26.180Z,101301.77
2018-03-21T05:05:27.449Z,101296.38
2018-03-21T05:08:28.694Z,101290.87
2018-03-21T05:11:30.666Z,101297.53
2018-03-21T05:14:32.650Z,101296.85
2018-03-21T05:17:34.661Z,101296.35
2018-03-21T05:20:35.898Z,101295.34
2018-03-21T05:23:37.935Z,101301.15
2018-03-21T05:26:39.167Z,101283.76
2018-03-21T05:29:40.464Z,101285.69
2018-03-21T05:32:41.701Z,101292.30
2018-03-21T05:35:42.916Z,101292.44
2018-03-21T05:38:44.258Z,101302.39
2018-03-21T05:41:45.467Z,101296.61
2018-03-21T05:44:47.461Z,101300.35
2018-03-21T05:47:48.693Z,101297.18
2018-03-21T05:50:50.664Z,101302.95
2018-03-21T05:53:51.898Z,101300.74
2018-03-21T05:56:53.123Z,101297.63
2018-03-21T05:59:54.451Z,101297.06
2018-03-21T06:02:55.734Z,101306.30
2018-03-21T06:05:57.718Z,101307.08
2018-03-21T06:08:59.675Z,101296.99
2018-03-21T06:12:00.899Z,101305.83
2018-03-21T06:15:02.129Z,101309.86
2018-03-21T06:18:03.412Z,101315.14
2018-03-21T06:21:04.695Z,101307.48
2018-03-21T06:24:05.964Z,101311.96
2018-03-21T06:27:07.215Z,101321.11
2018-03-21T06:30:08.436Z,101315.97
2018-03-21T06:33:10.411Z,101316.34
2018-03-21T06:36:12.394Z,101325.32
2018-03-21T06:39:14.422Z,101320.35
2018-03-21T06:42:15.666Z,101336.08
2018-03-21T06:45:16.902Z,101330.09
2018-03-21T06:48:18.875Z,101335.73
2018-03-21T06:51:20.873Z,101344.69
2018-03-21T06:54:22.108Z,101355.58
2018-03-21T06:57:24.098Z,101355.64
2018-03-21T07:00:26.109Z,101351.05
2018-03-21T07:03:27.337Z,101353.20
2018-03-21T07:06:29.326Z,101359.82
2018-03-21T07:09:31.304Z,101358.89
2018-03-21T07:12:33.275Z,101364.41
2018-03-21T07:15:53.894Z,101363.76
2018-03-21T07:18:55.153Z,101374.06
2018-03-21T07:21:56.447Z,101380.91
2018-03-21T07:24:57.740Z,101380.31
2018-03-21T07:27:59.022Z,101382.43
2018-03-21T07:31:00.271Z,101384.14
2018-03-21T07:34:01.558Z,101384.36
2018-03-21T07:37:02.864Z,101381.83
2018-03-21T07:40:04.110Z,101369.47
2018-03-21T07:43:05.355Z,101381.23
2018-03-21T07:46:06.572Z,101378.66
2018-03-21T07:49:07.843Z,101375.16
2018-03-21T07:52:09.137Z,101371.23
2018-03-21T07:55:10.364Z,101377.72
2018-03-21T07:58:12.378Z,101380.17
2018-03-21T08:01:13.629Z,101381.23
2018-03-21T08:04:14.880Z,101379.56
2018-03-21T08:07:16.134Z,101375.06
2018-03-21T08:10:17.390Z,101391.69
2018-03-21T08:13:18.678Z,101387.70
2018-03-21T08:16:19.940Z,101392.67
2018-03-21T08:19:21.214Z,101405.02
2018-03-21T08:22:22.465Z,101401.62
2018-03-21T08:25:23.751Z,101389.97
2018-03-21T08:28:25.009Z,101410.03
2018-03-21T08:31:26.271Z,101421.60
2018-03-21T08:34:27.574Z,101427.23
2018-03-21T08:37:29.582Z,101425.59
2018-03-21T08:40:30.908Z,101419.44
2018-03-21T08:43:32.159Z,101422.83
2018-03-21T08:46:34.171Z,101424.97
2018-03-21T08:49:35.404Z,101425.00
2018-03-21T08:52:36.638Z,101424.05
2018-03-21T08:55:37.941Z,101428.05
2018-03-21T08:58:39.158Z,101434.16
2018-03-21T09:01:40.392Z,101432.39
2018-03-21T09:04:41.676Z,101434.94
2018-03-21T09:07:42.929Z,101429.57
2018-03-21T09:10:44.252Z,101425.86
2018-03-21T09:13:45.609Z,101435.27
2018-03-21T09:16:46.832Z,101440.20
2018-03-21T09:19:48.072Z,101434.39
2018-03-21T09:22:49.342Z,101431.47
2018-03-21T09:25:50.599Z,101434.92
2018-03-21T09:28:51.828Z,101437.51
2018-03-21T09:31:53.078Z,101430.51
2018-03-21T09:34:54.351Z,101438.97
2018-03-21T09:37:55.641Z,101439.16
2018-03-21T09:40:56.915Z,101429.87
2018-03-21T09:43:58.147Z,101435.77
2018-03-21T09:46:59.485Z,101443.20
2018-03-21T09:50:00.745Z,101444.56
2018-03-21T09:53:02.029Z,101436.69
2018-03-21T09:56:03.301Z,101434.51
2018-03-21T09:59:04.546Z,101436.11
2018-03-21T10:02:05.837Z,101425.02
2018-03-21T10:05:07.824Z,101421.41
2018-03-21T10:08:09.811Z,101418.25
2018-03-21T10:11:11.787Z,101426.41
2018-03-21T10:14:13.767Z,101415.89
2018-03-21T10:17:16.038Z,101413.39
2018-03-21T10:20:17.310Z,101418.23
2018-03-21T10:23:19.308Z,101413.05
2018-03-21T10:26:20.551Z,101413.64
2018-03-21T10:29:22.563Z,101413.82
2018-03-21T10:32:23.759Z,101413.30
2018-03-21T10:35:25.024Z,101406.47
2018-03-21T10:38:26.282Z,101407.53
2018-03-21T10:41:27.496Z,101406.11
2018-03-21T10:44:29.507Z,101414.37
2018-03-21T10:47:30.792Z,101422.81
2018-03-21T10:50:32.022Z,101421.23
2018-03-21T10:53:33.287Z,101422.83
2018-03-21T10:56:34.499Z,101428.06
2018-03-21T10:59:35.755Z,101431.38
2018-03-21T11:02:43.295Z,101427.16
2018-03-21T11:05:45.280Z,101421.95
2018-03-21T11:08:47.244Z,101424.19
2018-03-21T11:11:48.488Z,101418.23
2018-03-21T11:14:49.730Z,101418.27
2018-03-21T11:17:50.947Z,101403.89
2018-03-21T11:20:52.934Z,101412.27
2018-03-21T11:23:54.910Z,101405.94
2018-03-21T11:26:56.868Z,101404.23
2018-03-21T11:29:58.127Z,101405.41
2018-03-21T11:32:59.386Z,101400.74
2018-03-21T11:36:00.618Z,101406.99
2018-03-21T11:39:01.925Z,101416.42
2018-03-21T11:42:03.130Z,101408.73
2018-03-21T11:45:04.404Z,101402.06
2018-03-21T11:48:05.622Z,101413.10
2018-03-21T11:51:07.599Z,101406.87
2018-03-21T11:54:09.626Z,101406.23
2018-03-21T11:57:10.854Z,101408.52
2018-03-21T12:00:12.656Z,101407.70
2018-03-21T12:03:13.904Z,101400.80
2018-03-21T12:06:15.142Z,101411.41
2018-03-21T12:09:17.151Z,101392.86
2018-03-21T12:12:18.390Z,101394.53
2018-03-21T12:15:20.401Z,101385.73
2018-03-21T12:18:21.627Z,101376.66
2018-03-21T12:21:23.630Z,101378.69
2018-03-21T12:24:24.857Z,101376.31
2018-03-21T12:27:26.121Z,101380.19
2018-03-21T12:30:27.385Z,101360.66
2018-03-21T12:33:28.624Z,101360.70
2018-03-21T12:36:29.893Z,101359.34
2018-03-21T12:39:31.145Z,101354.06
2018-03-21T12:42:32.365Z,101354.52
2018-03-21T12:45:33.584Z,101348.10
2018-03-21T12:48:34.826Z,101349.80
2018-03-21T12:51:36.102Z,101351.76
2018-03-21T12:54:37.363Z,101343.45
2018-03-21T12:57:38.590Z,101350.08
2018-03-21T13:00:46.727Z,101352.63
2018-03-21T13:03:47.954Z,101348.48
2018-03-21T13:06:49.924Z,101350.95
2018-03-21T13:09:51.138Z,101331.75
2018-03-21T13:12:52.376Z,101350.28
2018-03-21T13:15:53.587Z,101336.62
2018-03-21T13:18:54.845Z,101337.84
2018-03-21T13:21:56.072Z,101336.21
2018-03-21T13:24:57.300Z,101335.95
2018-03-21T13:27:59.283Z,101332.27
2018-03-21T13:31:01.286Z,101337.14
2018-03-21T13:34:02.574Z,101345.80
2018-03-21T13:37:03.820Z,101347.98
2018-03-21T13:40:05.086Z,101355.87
2018-03-21T13:43:06.304Z,101337.84
2018-03-21T13:46:07.554Z,101329.28
2018-03-21T13:49:08.822Z,101320.99
2018-03-21T13:52:10.070Z,101310.63
2018-03-21T13:55:11.317Z,101303.20
2018-03-21T13:58:12.559Z,101323.36
2018-03-21T14:01:13.800Z,101324.03
2018-03-21T14:04:15.839Z,101313.78
2018-03-21T14:07:17.058Z,101302.95
2018-03-21T14:10:18.301Z,101300.62
2018-03-21T14:13:20.321Z,101299.83
2018-03-21T14:16:21.651Z,101295.36
2018-03-21T14:19:23.645Z,101302.94
2018-03-21T14:22:24.868Z,101299.75
2018-03-21T14:25:26.146Z,101295.06
2018-03-21T14:28:28.131Z,101304.05
2018-03-21T14:31:30.106Z,101303.27
2018-03-21T14:34:31.455Z,101303.39
2018-03-21T14:37:32.721Z,101297.70
2018-03-21T14:40:33.972Z,101300.22
2018-03-21T14:43:35.216Z,101287.04
2018-03-21T14:46:36.438Z,101279.93
2018-03-21T14:49:38.488Z,101287.00
2018-03-21T14:52:39.676Z,101281.30
2018-03-21T14:55:41.705Z,101272.34
2018-03-21T14:58:43.033Z,101259.14
2018-03-21T15:01:45.086Z,101261.58
2018-03-21T15:04:46.344Z,101266.09
2018-03-21T15:07:47.591Z,101248.77
2018-03-21T15:10:48.862Z,101242.59
2018-03-21T15:13:50.099Z,101237.97
2018-03-21T15:16:51.361Z,101249.34
2018-03-21T15:19:52.663Z,101237.56
2018-03-21T15:22:53.918Z,101226.20
2018-03-21T15:25:55.221Z,101220.42
2018-03-21T15:28:56.477Z,101220.94
2018-03-21T15:31:58.516Z,101222.80
2018-03-21T15:34:59.790Z,101213.55
2018-03-21T15:38:01.163Z,101218.66
2018-03-21T15:41:02.415Z,101209.88
2018-03-21T15:44:03.679Z,101204.06
2018-03-21T15:47:04.954Z,101208.28
2018-03-21T15:50:06.168Z,101193.53
2018-03-21T15:53:07.400Z,101187.91
2018-03-21T15:56:09.395Z,101190.21
2018-03-21T15:59:10.715Z,101175.37
2018-03-21T16:02:11.976Z,101179.37
2018-03-21T16:05:13.230Z,101174.62
2018-03-21T16:08:14.498Z,101174.44
2018-03-21T16:11:16.510Z,101162.08
2018-03-21T16:14:17.867Z,101166.33
2018-03-21T16:17:19.115Z,101172.48
2018-03-21T16:20:20.378Z,101172.75
2018-03-21T16:23:21.630Z,101175.47
2018-03-21T16:26:22.859Z,101174.77
2018-03-21T16:29:24.174Z,101167.77
2018-03-21T16:32:25.422Z,101173.75
2018-03-21T16:35:26.687Z,101170.59
2018-03-21T16:38:27.950Z,101181.82
2018-03-21T16:41:29.233Z,101179.03
2018-03-21T16:44:30.474Z,101180.33
2018-03-21T16:47:31.742Z,101184.92
2018-03-21T16:50:32.968Z,101192.50
2018-03-21T16:53:34.221Z,101191.70
2018-03-21T16:56:35.714Z,101180.88
2018-03-21T16:59:36.956Z,101181.81
2018-03-21T17:02:38.220Z,101183.45
2018-03-21T17:05:39.490Z,101189.25
2018-03-21T17:08:40.778Z,101184.57
2018-03-21T17:11:42.037Z,101176.52
2018-03-21T17:14:43.274Z,101185.22
2018-03-21T17:17:44.521Z,101173.84
2018-03-21T17:20:46.507Z,101171.04
2018-03-21T17:23:47.758Z,101160.64
2018-03-21T17:26:49.753Z,101159.47
2018-03-21T17:29:50.964Z,101151.80
2018-03-21T17:32:52.235Z,101157.18
2018-03-21T17:35:53.472Z,101154.25
2018-03-21T17:38:55.006Z,101163.95
2018-03-21T17:41:56.364Z,101158.38
2018-03-21T17:44:58.503Z,101161.20
2018-03-21T17:48:00.734Z,101153.72
2018-03-21T17:51:05.265Z,101147.39
2018-03-21T17:54:09.100Z,101157.73
2018-03-21T17:57:11.090Z,101153.45
2018-03-21T18:00:13.148Z,101142.24
2018-03-21T18:03:15.507Z,101136.27
2018-03-21T18:06:17.216Z,101135.45
2018-03-21T18:09:18.522Z,101128.17
2018-03-21T18:12:20.284Z,101128.77
2018-03-21T18:15:22.431Z,101128.83
2018-03-21T18:18:24.567Z,101124.16
2018-03-21T18:21:26.096Z,101130.48
2018-03-21T18:24:29.749Z,101124.98
2018-03-21T18:27:31.033Z,101127.16
2018-03-21T18:30:32.274Z,101125.14
2018-03-21T18:33:33.551Z,101130.27
2018-03-21T18:36:35.350Z,101120.23
2018-03-21T18:39:37.394Z,101131.99
2018-03-21T18:42:38.687Z,101138.61
2018-03-21T18:45:39.973Z,101129.91
2018-03-21T18:48:41.339Z,101130.41
2018-03-21T18:51:43.419Z,101125.11
2018-03-21T18:54:44.680Z,101128.27
2018-03-21T18:57:45.943Z,101121.21
2018-03-21T19:00:47.171Z,101134.45
2018-03-21T19:03:48.410Z,101107.30
2018-03-21T19:06:49.804Z,101106.55
2018-03-21T19:09:51.068Z,101110.02
2018-03-21T19:12:52.324Z,101111.63
2018-03-21T19:15:53.608Z,101109.88
2018-03-21T19:18:56.066Z,101103.85
2018-03-21T19:21:57.462Z,101106.50
2018-03-21T19:24:59.490Z,101095.16
2018-03-21T19:28:00.766Z,101095.52
2018-03-21T19:31:02.623Z,101092.91
2018-03-21T19:34:04.925Z,101095.36
2018-03-21T19:37:07.638Z,101091.34
2018-03-21T19:40:10.337Z,101087.41
2018-03-21T19:43:12.031Z,101091.28
2018-03-21T19:46:13.294Z,101082.30
2018-03-21T19:49:14.948Z,101077.74
2018-03-21T19:52:18.763Z,101074.98
2018-03-21T19:55:20.156Z,101072.67
2018-03-21T19:58:21.562Z,101065.32
2018-03-21T20:01:22.876Z,101070.00
2018-03-21T20:04:25.100Z,101068.27
2018-03-21T20:07:28.086Z,101061.44
2018-03-21T20:10:30.012Z,101052.06
2018-03-21T20:13:32.589Z,101038.16
2018-03-21T20:16:33.823Z,101036.14
2018-03-21T20:19:35.119Z,101029.16
2018-03-21T20:22:38.658Z,101026.46
2018-03-21T20:25:40.403Z,101016.00
2018-03-21T20:28:41.874Z,101011.38
2018-03-21T20:31:43.300Z,101019.55
2018-03-21T20:34:44.729Z,101019.06
2018-03-21T20:37:46.202Z,101013.45
2018-03-21T20:40:48.463Z,101017.69
2018-03-21T20:43:51.122Z,101008.00
2018-03-21T20:46:52.390Z,101018.56
2018-03-21T20:49:54.316Z,101016.17
2018-03-21T20:52:56.550Z,101021.75
2018-03-21T20:55:58.611Z,101016.89
2018-03-21T20:59:01.013Z,101004.91
2018-03-21T21:02:02.947Z,101005.51
2018-03-21T21:05:04.921Z,100997.20
2018-03-21T21:08:06.577Z,100990.80
2018-03-21T21:11:08.158Z,100986.92
2018-03-21T21:14:10.624Z,100979.36
2018-03-21T21:17:11.914Z,100975.47
2018-03-21T21:20:13.863Z,100988.68
2018-03-21T21:23:15.283Z,100987.58
2018-03-21T21:26:18.251Z,100966.31
2018-03-21T21:29:21.814Z,100970.77
2018-03-21T21:32:23.084Z,100964.05
2018-03-21T21:35:24.743Z,100971.08
2018-03-21T21:38:27.409Z,100966.85
2018-03-21T21:41:30.351Z,100957.46
2018-03-21T21:44:32.008Z,100951.55
2018-03-21T21:47:35.653Z,100952.55
2018-03-21T21:50:38.168Z,100947.31
2018-03-21T21:53:41.345Z,100948.92
2018-03-21T21:56:42.655Z,100956.09
2018-03-21T21:59:44.878Z,100946.80
2018-03-21T22:02:46.218Z,100940.67
2018-03-21T22:05:48.881Z,100925.69
2018-03-21T22:08:51.291Z,100933.75
2018-03-21T22:12:55.089Z,100922.63
2018-03-21T22:15:57.132Z,100928.00
2018-03-21T22:18:58.505Z,100908.25
2018-03-21T22:22:00.591Z,100906.27
2018-03-21T22:25:02.711Z,100902.88
2018-03-21T22:28:04.238Z,100900.82
2018-03-21T22:31:05.530Z,100899.52
2018-03-21T22:34:06.827Z,100887.91
2018-03-21T22:37:08.529Z,100886.44
2018-03-21T22:40:09.813Z,100881.48
2018-03-21T22:43:11.841Z,100879.91
2018-03-21T22:46:13.156Z,100867.80
2018-03-21T22:49:15.166Z,100868.66
2018-03-21T22:52:16.429Z,100863.65
2018-03-21T22:55:17.741Z,100863.03
2018-03-21T22:58:19.076Z,100862.14
2018-03-21T23:01:20.350Z,100853.16
2018-03-21T23:04:21.592Z,100843.20
2018-03-21T23:07:22.854Z,100834.52
2018-03-21T23:10:24.101Z,100826.95
2018-03-21T23:13:25.384Z,100825.33
2018-03-21T23:16:26.651Z,100830.19
2018-03-21T23:19:27.941Z,100814.62
2018-03-21T23:22:29.214Z,100817.45
2018-03-21T23:25:30.486Z,100817.19
2018-03-21T23:28:31.845Z,100808.50
2018-03-21T23:31:33.117Z,100808.62
2018-03-21T23:34:34.364Z,100813.59
2018-03-21T23:37:35.618Z,100811.02
2018-03-21T23:40:36.853Z,100803.46
2018-03-21T23:43:38.127Z,100800.74
2018-03-21T23:46:39.355Z,100797.02
2018-03-21T23:49:41.343Z,100790.85
2018-03-21T23:52:42.604Z,100788.27
2018-03-21T23:55:43.840Z,100789.64
2018-03-21T23:58:45.075Z,100786.47
